Wilmer, TX (75172)

5:00 AM CDT on August 30, 2016 (GMT -0500)
westridge addition | | Change Station

Elev 564 ft 32.60 °N, 96.76 °W | Updated 57 seconds ago

Clear
Clear
69.4 °F
Feels Like 69.4 °F
N
0.0
Wind Variable Wind from North
Gusts 0.0 mph

Today
High -- | Low -- °F
--% Chance of Precip.
Yesterday
High -- | Low -- °F
Precip. -- in
Pressure 30.04 in
Visibility 7.0 miles
Clouds Clear
Dew Point 68 °F
Humidity 97%
Rainfall 0.00 in
Snow Depth Not available.
7:00 AM 7:53 PM
Waning Crescent, 4% visible
METAR KLNC 300955Z AUTO 00000KT 7SM CLR 23/21 A3004 RMK AO2 T02250210
Pressure 30.04 in
Visibility 7.0 miles
Clouds Clear
Dew Point 68 °F
Humidity 97%
Rainfall 0.00 in
Snow Depth Not available.
7:00 AM 7:53 PM
Waning Crescent, 4% visible
METAR KLNC 300955Z AUTO 00000KT 7SM CLR 23/21 A3004 RMK AO2 T02250210

10-Day Weather Forecast

Almanac

Astronomy

Aug. 30, 2016 Rise Set
Actual Time
Civil Twilight
Nautical Twilight
Astronomical Twilight
Moon
Length of Visible Light
Length of Day
Tomorrow will be .
, % of the Moon is Illuminated

Today's Extremes

State Highs State Lows

Community

WunderPhotos

Upload Photos

1,935,795 photos uploaded!

WunderBlog® & News

Nearby

Air Quality

  Air Quality AQ Index Pollutant
Not available.

Snow Depth

Station Depth Elevation

Earthquake Activity

City Distance Mag. Time & Date
Minimum magnitude displayed is 2.5.

Coastal Water Temperatures

Place Temperature

Stations

Nearby Weather Stations

Station Location Temp. Windchill Dew Point Humidity Wind Precip. Elev Updated Type
                   

Watches & Warnings

There are currently no watches in effect.